sensor_id;sensor_type;location;lat;lon;timestamp;P1;durP1;ratioP1;P2;durP2;ratioP2
15913;SDS011;8055;51.930;8.840;2022-11-15T00:01:31;12.82;;;7.90;;
15913;SDS011;8055;51.930;8.840;2022-11-15T00:03:56;9.43;;;6.90;;
15913;SDS011;8055;51.930;8.840;2022-11-15T00:06:21;11.77;;;7.03;;
15913;SDS011;8055;51.930;8.840;2022-11-15T00:08:47;8.32;;;6.15;;
15913;SDS011;8055;51.930;8.840;2022-11-15T00:11:12;8.27;;;6.60;;
15913;SDS011;8055;51.930;8.840;2022-11-15T00:13:38;9.63;;;6.55;;
15913;SDS011;8055;51.930;8.840;2022-11-15T00:16:04;8.23;;;6.30;;
15913;SDS011;8055;51.930;8.840;2022-11-15T00:18:29;10.95;;;6.65;;
15913;SDS011;8055;51.930;8.840;2022-11-15T00:20:56;10.32;;;6.57;;
15913;SDS011;8055;51.930;8.840;2022-11-15T00:23:32;11.38;;;6.38;;
15913;SDS011;8055;51.930;8.840;2022-11-15T00:25:58;10.30;;;6.85;;
15913;SDS011;8055;51.930;8.840;2022-11-15T00:28:24;9.65;;;6.30;;
15913;SDS011;8055;51.930;8.840;2022-11-15T00:30:49;9.80;;;6.10;;
15913;SDS011;8055;51.930;8.840;2022-11-15T00:33:15;7.55;;;6.20;;
15913;SDS011;8055;51.930;8.840;2022-11-15T00:35:40;7.85;;;5.55;;
15913;SDS011;8055;51.930;8.840;2022-11-15T00:38:06;10.52;;;6.30;;
15913;SDS011;8055;51.930;8.840;2022-11-15T00:40:31;13.20;;;6.50;;
15913;SDS011;8055;51.930;8.840;2022-11-15T00:42:57;7.93;;;5.82;;
15913;SDS011;8055;51.930;8.840;2022-11-15T00:45:23;8.85;;;5.90;;
15913;SDS011;8055;51.930;8.840;2022-11-15T00:47:49;9.88;;;6.47;;
15913;SDS011;8055;51.930;8.840;2022-11-15T00:50:15;12.40;;;6.70;;
15913;SDS011;8055;51.930;8.840;2022-11-15T00:52:41;7.93;;;5.95;;
15913;SDS011;8055;51.930;8.840;2022-11-15T00:55:06;8.25;;;6.47;;
15913;SDS011;8055;51.930;8.840;2022-11-15T00:57:33;9.95;;;7.10;;
15913;SDS011;8055;51.930;8.840;2022-11-15T00:59:59;11.05;;;7.68;;
15913;SDS011;8055;51.930;8.840;2022-11-15T01:02:24;11.30;;;8.55;;
15913;SDS011;8055;51.930;8.840;2022-11-15T01:04:50;13.45;;;8.73;;
15913;SDS011;8055;51.930;8.840;2022-11-15T01:07:15;14.93;;;9.70;;
15913;SDS011;8055;51.930;8.840;2022-11-15T01:09:40;14.10;;;9.77;;
15913;SDS011;8055;51.930;8.840;2022-11-15T01:12:05;17.70;;;9.75;;
15913;SDS011;8055;51.930;8.840;2022-11-15T01:14:31;15.95;;;9.70;;
15913;SDS011;8055;51.930;8.840;2022-11-15T01:16:56;15.93;;;10.18;;
15913;SDS011;8055;51.930;8.840;2022-11-15T01:19:21;15.20;;;9.85;;
15913;SDS011;8055;51.930;8.840;2022-11-15T01:21:50;11.55;;;9.13;;
15913;SDS011;8055;51.930;8.840;2022-11-15T01:24:16;11.18;;;9.13;;
15913;SDS011;8055;51.930;8.840;2022-11-15T01:26:42;11.55;;;8.85;;
15913;SDS011;8055;51.930;8.840;2022-11-15T01:29:07;14.07;;;9.35;;
15913;SDS011;8055;51.930;8.840;2022-11-15T01:31:32;13.77;;;8.35;;
15913;SDS011;8055;51.930;8.840;2022-11-15T01:33:58;12.98;;;9.15;;
15913;SDS011;8055;51.930;8.840;2022-11-15T01:36:23;11.50;;;9.18;;
15913;SDS011;8055;51.930;8.840;2022-11-15T01:38:58;14.10;;;9.95;;
15913;SDS011;8055;51.930;8.840;2022-11-15T01:41:25;11.80;;;9.82;;
15913;SDS011;8055;51.930;8.840;2022-11-15T01:43:54;12.75;;;10.70;;
15913;SDS011;8055;51.930;8.840;2022-11-15T01:48:46;15.93;;;10.88;;
15913;SDS011;8055;51.930;8.840;2022-11-15T01:51:13;14.57;;;10.65;;
15913;SDS011;8055;51.930;8.840;2022-11-15T01:53:43;18.20;;;12.05;;
15913;SDS011;8055;51.930;8.840;2022-11-15T01:56:13;15.77;;;12.32;;
15913;SDS011;8055;51.930;8.840;2022-11-15T01:58:44;13.43;;;10.63;;
15913;SDS011;8055;51.930;8.840;2022-11-15T02:01:11;14.55;;;11.38;;
15913;SDS011;8055;51.930;8.840;2022-11-15T02:03:39;18.42;;;12.15;;
15913;SDS011;8055;51.930;8.840;2022-11-15T02:06:09;18.23;;;13.93;;
15913;SDS011;8055;51.930;8.840;2022-11-15T02:08:35;21.23;;;13.45;;
15913;SDS011;8055;51.930;8.840;2022-11-15T02:11:00;22.65;;;13.57;;
15913;SDS011;8055;51.930;8.840;2022-11-15T02:13:25;18.08;;;13.45;;
15913;SDS011;8055;51.930;8.840;2022-11-15T02:15:58;19.10;;;14.15;;
15913;SDS011;8055;51.930;8.840;2022-11-15T02:18:32;19.48;;;14.13;;
15913;SDS011;8055;51.930;8.840;2022-11-15T02:23:38;19.77;;;13.20;;
15913;SDS011;8055;51.930;8.840;2022-11-15T02:29:03;19.83;;;14.40;;
15913;SDS011;8055;51.930;8.840;2022-11-15T02:34:51;19.00;;;13.98;;
15913;SDS011;8055;51.930;8.840;2022-11-15T02:37:16;20.50;;;13.63;;
15913;SDS011;8055;51.930;8.840;2022-11-15T02:40:02;20.52;;;13.05;;
15913;SDS011;8055;51.930;8.840;2022-11-15T02:42:31;20.60;;;13.52;;
15913;SDS011;8055;51.930;8.840;2022-11-15T02:45:20;29.13;;;14.60;;
15913;SDS011;8055;51.930;8.840;2022-11-15T02:47:48;20.88;;;14.65;;
15913;SDS011;8055;51.930;8.840;2022-11-15T02:50:20;20.92;;;14.32;;
15913;SDS011;8055;51.930;8.840;2022-11-15T02:52:49;22.95;;;15.23;;
15913;SDS011;8055;51.930;8.840;2022-11-15T02:55:26;23.80;;;15.02;;
15913;SDS011;8055;51.930;8.840;2022-11-15T02:57:52;18.83;;;13.65;;
15913;SDS011;8055;51.930;8.840;2022-11-15T03:00:30;28.60;;;15.52;;
15913;SDS011;8055;51.930;8.840;2022-11-15T03:08:32;23.70;;;15.13;;
15913;SDS011;8055;51.930;8.840;2022-11-15T03:11:09;23.58;;;14.68;;
15913;SDS011;8055;51.930;8.840;2022-11-15T03:16:45;21.48;;;14.55;;
15913;SDS011;8055;51.930;8.840;2022-11-15T03:21:47;25.70;;;14.40;;
15913;SDS011;8055;51.930;8.840;2022-11-15T03:24:14;20.75;;;14.20;;
15913;SDS011;8055;51.930;8.840;2022-11-15T03:26:42;20.98;;;13.82;;
15913;SDS011;8055;51.930;8.840;2022-11-15T03:29:15;23.65;;;14.10;;
15913;SDS011;8055;51.930;8.840;2022-11-15T03:31:45;18.55;;;12.85;;
15913;SDS011;8055;51.930;8.840;2022-11-15T03:34:27;21.25;;;12.98;;
15913;SDS011;8055;51.930;8.840;2022-11-15T03:36:57;22.45;;;13.27;;
15913;SDS011;8055;51.930;8.840;2022-11-15T03:39:22;21.42;;;12.82;;
15913;SDS011;8055;51.930;8.840;2022-11-15T03:49:44;21.73;;;11.88;;
15913;SDS011;8055;51.930;8.840;2022-11-15T03:52:17;23.20;;;13.02;;
15913;SDS011;8055;51.930;8.840;2022-11-15T03:54:54;15.85;;;11.00;;
15913;SDS011;8055;51.930;8.840;2022-11-15T03:57:21;18.67;;;11.70;;
15913;SDS011;8055;51.930;8.840;2022-11-15T03:59:46;18.38;;;11.15;;
15913;SDS011;8055;51.930;8.840;2022-11-15T04:02:12;13.77;;;10.75;;
15913;SDS011;8055;51.930;8.840;2022-11-15T04:04:38;17.40;;;11.07;;
15913;SDS011;8055;51.930;8.840;2022-11-15T04:07:03;17.80;;;11.07;;
15913;SDS011;8055;51.930;8.840;2022-11-15T04:09:29;14.20;;;10.23;;
15913;SDS011;8055;51.930;8.840;2022-11-15T04:11:54;15.40;;;9.77;;
15913;SDS011;8055;51.930;8.840;2022-11-15T04:14:19;15.50;;;10.32;;
15913;SDS011;8055;51.930;8.840;2022-11-15T04:16:45;15.23;;;10.20;;
15913;SDS011;8055;51.930;8.840;2022-11-15T04:19:10;15.63;;;10.07;;
15913;SDS011;8055;51.930;8.840;2022-11-15T04:21:54;11.95;;;9.15;;
15913;SDS011;8055;51.930;8.840;2022-11-15T04:24:38;13.27;;;8.82;;
15913;SDS011;8055;51.930;8.840;2022-11-15T04:27:03;12.15;;;8.90;;
15913;SDS011;8055;51.930;8.840;2022-11-15T04:29:28;13.52;;;8.60;;
15913;SDS011;8055;51.930;8.840;2022-11-15T04:32:01;13.13;;;8.55;;
15913;SDS011;8055;51.930;8.840;2022-11-15T04:34:27;10.25;;;7.60;;
15913;SDS011;8055;51.930;8.840;2022-11-15T04:36:53;11.27;;;7.78;;
15913;SDS011;8055;51.930;8.840;2022-11-15T04:39:36;11.73;;;7.63;;
15913;SDS011;8055;51.930;8.840;2022-11-15T04:42:02;9.13;;;7.38;;
15913;SDS011;8055;51.930;8.840;2022-11-15T04:44:27;10.82;;;7.30;;
15913;SDS011;8055;51.930;8.840;2022-11-15T04:46:53;9.68;;;7.38;;
15913;SDS011;8055;51.930;8.840;2022-11-15T04:49:18;12.52;;;8.13;;
15913;SDS011;8055;51.930;8.840;2022-11-15T04:51:44;10.40;;;6.88;;
15913;SDS011;8055;51.930;8.840;2022-11-15T04:54:09;13.27;;;9.07;;
15913;SDS011;8055;51.930;8.840;2022-11-15T04:56:35;12.05;;;9.70;;
15913;SDS011;8055;51.930;8.840;2022-11-15T04:59:00;17.33;;;11.27;;
15913;SDS011;8055;51.930;8.840;2022-11-15T05:01:26;21.48;;;11.77;;
15913;SDS011;8055;51.930;8.840;2022-11-15T05:03:51;17.17;;;11.27;;
15913;SDS011;8055;51.930;8.840;2022-11-15T05:06:35;15.10;;;10.50;;
15913;SDS011;8055;51.930;8.840;2022-11-15T05:09:00;13.25;;;9.13;;
15913;SDS011;8055;51.930;8.840;2022-11-15T05:11:26;12.57;;;8.82;;
15913;SDS011;8055;51.930;8.840;2022-11-15T05:13:52;13.15;;;8.27;;
15913;SDS011;8055;51.930;8.840;2022-11-15T05:16:17;9.93;;;7.88;;
15913;SDS011;8055;51.930;8.840;2022-11-15T05:18:43;11.45;;;8.35;;
15913;SDS011;8055;51.930;8.840;2022-11-15T05:21:09;10.95;;;8.05;;
15913;SDS011;8055;51.930;8.840;2022-11-15T05:23:37;12.13;;;8.70;;
15913;SDS011;8055;51.930;8.840;2022-11-15T05:26:03;12.90;;;9.13;;
15913;SDS011;8055;51.930;8.840;2022-11-15T05:28:30;11.50;;;8.70;;
15913;SDS011;8055;51.930;8.840;2022-11-15T05:31:13;11.27;;;8.98;;
15913;SDS011;8055;51.930;8.840;2022-11-15T05:33:40;11.95;;;8.57;;
15913;SDS011;8055;51.930;8.840;2022-11-15T05:36:09;13.00;;;9.23;;
15913;SDS011;8055;51.930;8.840;2022-11-15T05:38:46;13.30;;;9.05;;
15913;SDS011;8055;51.930;8.840;2022-11-15T05:41:13;14.27;;;9.30;;
15913;SDS011;8055;51.930;8.840;2022-11-15T05:43:41;14.65;;;8.90;;
15913;SDS011;8055;51.930;8.840;2022-11-15T05:46:08;11.88;;;9.52;;
15913;SDS011;8055;51.930;8.840;2022-11-15T05:48:34;12.63;;;9.07;;
15913;SDS011;8055;51.930;8.840;2022-11-15T05:51:02;11.20;;;8.38;;
15913;SDS011;8055;51.930;8.840;2022-11-15T05:53:29;14.25;;;9.30;;
15913;SDS011;8055;51.930;8.840;2022-11-15T05:55:55;11.85;;;8.48;;
15913;SDS011;8055;51.930;8.840;2022-11-15T05:58:20;11.48;;;8.63;;
15913;SDS011;8055;51.930;8.840;2022-11-15T06:00:46;13.73;;;8.90;;
15913;SDS011;8055;51.930;8.840;2022-11-15T06:03:12;13.70;;;8.63;;
15913;SDS011;8055;51.930;8.840;2022-11-15T06:05:39;11.38;;;8.73;;
15913;SDS011;8055;51.930;8.840;2022-11-15T06:08:04;12.45;;;8.60;;
15913;SDS011;8055;51.930;8.840;2022-11-15T06:10:30;11.82;;;8.77;;
15913;SDS011;8055;51.930;8.840;2022-11-15T06:15:24;12.57;;;8.27;;
15913;SDS011;8055;51.930;8.840;2022-11-15T06:17:50;11.38;;;7.75;;
15913;SDS011;8055;51.930;8.840;2022-11-15T06:20:15;11.32;;;8.20;;
15913;SDS011;8055;51.930;8.840;2022-11-15T06:22:40;11.65;;;7.85;;
15913;SDS011;8055;51.930;8.840;2022-11-15T06:25:06;10.35;;;7.60;;
15913;SDS011;8055;51.930;8.840;2022-11-15T06:27:31;11.63;;;7.40;;
15913;SDS011;8055;51.930;8.840;2022-11-15T06:29:57;9.20;;;7.30;;
15913;SDS011;8055;51.930;8.840;2022-11-15T06:32:22;11.48;;;7.10;;
15913;SDS011;8055;51.930;8.840;2022-11-15T06:34:47;8.95;;;6.82;;
15913;SDS011;8055;51.930;8.840;2022-11-15T06:37:13;8.95;;;6.70;;
15913;SDS011;8055;51.930;8.840;2022-11-15T06:39:38;9.15;;;6.53;;
15913;SDS011;8055;51.930;8.840;2022-11-15T06:42:04;11.30;;;6.80;;
15913;SDS011;8055;51.930;8.840;2022-11-15T06:44:29;7.53;;;5.88;;
15913;SDS011;8055;51.930;8.840;2022-11-15T06:46:54;9.30;;;5.90;;
15913;SDS011;8055;51.930;8.840;2022-11-15T06:49:20;8.15;;;5.70;;
15913;SDS011;8055;51.930;8.840;2022-11-15T06:51:45;9.85;;;5.60;;
15913;SDS011;8055;51.930;8.840;2022-11-15T06:54:10;6.90;;;5.38;;
15913;SDS011;8055;51.930;8.840;2022-11-15T06:56:36;8.95;;;4.95;;
15913;SDS011;8055;51.930;8.840;2022-11-15T06:59:01;6.43;;;5.00;;
15913;SDS011;8055;51.930;8.840;2022-11-15T07:01:26;6.80;;;5.07;;
15913;SDS011;8055;51.930;8.840;2022-11-15T07:03:52;6.00;;;4.75;;
15913;SDS011;8055;51.930;8.840;2022-11-15T07:06:17;7.97;;;4.95;;
15913;SDS011;8055;51.930;8.840;2022-11-15T07:08:43;7.63;;;5.13;;
15913;SDS011;8055;51.930;8.840;2022-11-15T07:11:08;8.07;;;5.47;;
15913;SDS011;8055;51.930;8.840;2022-11-15T07:13:34;6.07;;;4.95;;
15913;SDS011;8055;51.930;8.840;2022-11-15T07:16:02;5.72;;;4.88;;
15913;SDS011;8055;51.930;8.840;2022-11-15T07:18:29;7.40;;;5.00;;
15913;SDS011;8055;51.930;8.840;2022-11-15T07:20:55;8.15;;;5.13;;
15913;SDS011;8055;51.930;8.840;2022-11-15T07:23:20;8.57;;;5.28;;
15913;SDS011;8055;51.930;8.840;2022-11-15T07:25:45;7.13;;;5.55;;
15913;SDS011;8055;51.930;8.840;2022-11-15T07:28:11;9.52;;;5.57;;
15913;SDS011;8055;51.930;8.840;2022-11-15T07:30:36;7.63;;;5.63;;
15913;SDS011;8055;51.930;8.840;2022-11-15T07:33:02;12.57;;;6.05;;
15913;SDS011;8055;51.930;8.840;2022-11-15T07:35:27;6.82;;;5.05;;
15913;SDS011;8055;51.930;8.840;2022-11-15T07:37:57;5.53;;;4.90;;
15913;SDS011;8055;51.930;8.840;2022-11-15T07:40:25;5.15;;;4.53;;
15913;SDS011;8055;51.930;8.840;2022-11-15T07:42:51;7.28;;;5.32;;
15913;SDS011;8055;51.930;8.840;2022-11-15T07:45:21;10.27;;;4.88;;
15913;SDS011;8055;51.930;8.840;2022-11-15T07:47:48;9.27;;;5.60;;
15913;SDS011;8055;51.930;8.840;2022-11-15T07:50:14;7.97;;;6.13;;
15913;SDS011;8055;51.930;8.840;2022-11-15T07:52:40;6.82;;;5.00;;
15913;SDS011;8055;51.930;8.840;2022-11-15T07:55:05;7.28;;;4.90;;
15913;SDS011;8055;51.930;8.840;2022-11-15T07:57:31;6.55;;;4.38;;
15913;SDS011;8055;51.930;8.840;2022-11-15T07:59:57;9.68;;;5.20;;
15913;SDS011;8055;51.930;8.840;2022-11-15T08:02:22;5.32;;;4.07;;
15913;SDS011;8055;51.930;8.840;2022-11-15T08:04:47;5.50;;;3.85;;
15913;SDS011;8055;51.930;8.840;2022-11-15T08:07:13;6.50;;;4.82;;
15913;SDS011;8055;51.930;8.840;2022-11-15T08:09:38;7.10;;;3.85;;
15913;SDS011;8055;51.930;8.840;2022-11-15T08:12:04;9.57;;;4.32;;
15913;SDS011;8055;51.930;8.840;2022-11-15T08:14:30;8.95;;;4.00;;
15913;SDS011;8055;51.930;8.840;2022-11-15T08:16:55;4.05;;;3.58;;
15913;SDS011;8055;51.930;8.840;2022-11-15T08:19:21;6.72;;;3.85;;
15913;SDS011;8055;51.930;8.840;2022-11-15T08:21:46;4.70;;;4.03;;
15913;SDS011;8055;51.930;8.840;2022-11-15T08:24:12;6.40;;;3.78;;
15913;SDS011;8055;51.930;8.840;2022-11-15T08:26:37;4.95;;;3.47;;
15913;SDS011;8055;51.930;8.840;2022-11-15T08:29:03;4.07;;;3.30;;
15913;SDS011;8055;51.930;8.840;2022-11-15T08:31:29;5.40;;;3.20;;
15913;SDS011;8055;51.930;8.840;2022-11-15T08:33:55;3.97;;;3.10;;
15913;SDS011;8055;51.930;8.840;2022-11-15T08:36:20;5.38;;;2.70;;
15913;SDS011;8055;51.930;8.840;2022-11-15T08:38:46;7.45;;;2.75;;
15913;SDS011;8055;51.930;8.840;2022-11-15T08:41:31;5.15;;;3.35;;
15913;SDS011;8055;51.930;8.840;2022-11-15T08:43:58;4.95;;;2.83;;
15913;SDS011;8055;51.930;8.840;2022-11-15T08:46:24;4.15;;;3.10;;
15913;SDS011;8055;51.930;8.840;2022-11-15T08:48:50;3.30;;;2.55;;
15913;SDS011;8055;51.930;8.840;2022-11-15T08:51:15;3.58;;;2.67;;
15913;SDS011;8055;51.930;8.840;2022-11-15T08:53:41;4.97;;;3.13;;
15913;SDS011;8055;51.930;8.840;2022-11-15T08:56:08;3.75;;;3.30;;
15913;SDS011;8055;51.930;8.840;2022-11-15T08:58:38;5.03;;;2.97;;
15913;SDS011;8055;51.930;8.840;2022-11-15T09:01:03;4.45;;;3.20;;
15913;SDS011;8055;51.930;8.840;2022-11-15T09:03:29;5.32;;;3.50;;
15913;SDS011;8055;51.930;8.840;2022-11-15T09:05:55;5.15;;;3.33;;
15913;SDS011;8055;51.930;8.840;2022-11-15T09:08:22;4.68;;;3.40;;
15913;SDS011;8055;51.930;8.840;2022-11-15T09:10:48;5.88;;;3.33;;
15913;SDS011;8055;51.930;8.840;2022-11-15T09:13:13;3.95;;;3.20;;
15913;SDS011;8055;51.930;8.840;2022-11-15T09:15:39;3.85;;;3.17;;
15913;SDS011;8055;51.930;8.840;2022-11-15T09:18:05;6.93;;;3.10;;
15913;SDS011;8055;51.930;8.840;2022-11-15T09:20:30;3.65;;;2.97;;
15913;SDS011;8055;51.930;8.840;2022-11-15T09:23:00;3.03;;;2.72;;
15913;SDS011;8055;51.930;8.840;2022-11-15T09:25:26;3.00;;;2.70;;
15913;SDS011;8055;51.930;8.840;2022-11-15T09:27:52;3.55;;;3.13;;
15913;SDS011;8055;51.930;8.840;2022-11-15T09:30:17;4.85;;;3.25;;
15913;SDS011;8055;51.930;8.840;2022-11-15T09:32:43;6.95;;;2.80;;
15913;SDS011;8055;51.930;8.840;2022-11-15T09:35:08;3.35;;;2.63;;
15913;SDS011;8055;51.930;8.840;2022-11-15T09:37:33;3.50;;;3.05;;
15913;SDS011;8055;51.930;8.840;2022-11-15T09:39:59;4.70;;;2.85;;
15913;SDS011;8055;51.930;8.840;2022-11-15T09:42:31;4.75;;;2.50;;
15913;SDS011;8055;51.930;8.840;2022-11-15T09:45:13;3.40;;;2.97;;
15913;SDS011;8055;51.930;8.840;2022-11-15T09:50:51;3.90;;;2.67;;
15913;SDS011;8055;51.930;8.840;2022-11-15T09:56:03;3.57;;;2.33;;
15913;SDS011;8055;51.930;8.840;2022-11-15T09:58:39;4.03;;;2.60;;
15913;SDS011;8055;51.930;8.840;2022-11-15T10:04:22;5.60;;;2.57;;
15913;SDS011;8055;51.930;8.840;2022-11-15T10:06:53;3.70;;;2.40;;
15913;SDS011;8055;51.930;8.840;2022-11-15T10:09:30;3.20;;;2.22;;
15913;SDS011;8055;51.930;8.840;2022-11-15T10:12:02;3.38;;;2.10;;
15913;SDS011;8055;51.930;8.840;2022-11-15T10:14:28;2.42;;;2.05;;
15913;SDS011;8055;51.930;8.840;2022-11-15T10:19:45;3.40;;;1.90;;
15913;SDS011;8055;51.930;8.840;2022-11-15T10:25:10;6.70;;;2.35;;
15913;SDS011;8055;51.930;8.840;2022-11-15T10:27:41;2.28;;;1.85;;
15913;SDS011;8055;51.930;8.840;2022-11-15T10:30:17;2.40;;;2.10;;
15913;SDS011;8055;51.930;8.840;2022-11-15T10:32:44;3.60;;;1.85;;
15913;SDS011;8055;51.930;8.840;2022-11-15T10:35:18;4.05;;;2.20;;
15913;SDS011;8055;51.930;8.840;2022-11-15T10:38:10;3.20;;;1.98;;
15913;SDS011;8055;51.930;8.840;2022-11-15T10:40:37;3.17;;;2.13;;
15913;SDS011;8055;51.930;8.840;2022-11-15T10:43:05;4.15;;;2.25;;
15913;SDS011;8055;51.930;8.840;2022-11-15T10:45:51;4.25;;;2.00;;
15913;SDS011;8055;51.930;8.840;2022-11-15T10:50:43;3.10;;;2.20;;
15913;SDS011;8055;51.930;8.840;2022-11-15T10:53:23;3.30;;;2.08;;
15913;SDS011;8055;51.930;8.840;2022-11-15T10:55:56;2.63;;;2.05;;
15913;SDS011;8055;51.930;8.840;2022-11-15T11:01:07;4.35;;;2.00;;
15913;SDS011;8055;51.930;8.840;2022-11-15T11:03:36;2.97;;;2.05;;
15913;SDS011;8055;51.930;8.840;2022-11-15T11:06:16;5.35;;;2.15;;
15913;SDS011;8055;51.930;8.840;2022-11-15T11:08:58;2.70;;;2.00;;
15913;SDS011;8055;51.930;8.840;2022-11-15T11:11:45;4.28;;;1.85;;
15913;SDS011;8055;51.930;8.840;2022-11-15T11:14:17;3.38;;;2.13;;
15913;SDS011;8055;51.930;8.840;2022-11-15T11:19:49;4.10;;;2.10;;
15913;SDS011;8055;51.930;8.840;2022-11-15T11:31:06;3.53;;;1.65;;
15913;SDS011;8055;51.930;8.840;2022-11-15T11:33:51;1.80;;;1.60;;
15913;SDS011;8055;51.930;8.840;2022-11-15T11:39:36;2.50;;;1.80;;
15913;SDS011;8055;51.930;8.840;2022-11-15T11:42:43;4.00;;;1.90;;
15913;SDS011;8055;51.930;8.840;2022-11-15T11:51:19;3.92;;;1.60;;
15913;SDS011;8055;51.930;8.840;2022-11-15T11:53:54;2.42;;;1.83;;
15913;SDS011;8055;51.930;8.840;2022-11-15T11:56:33;3.20;;;1.42;;
15913;SDS011;8055;51.930;8.840;2022-11-15T11:59:46;2.47;;;1.92;;
15913;SDS011;8055;51.930;8.840;2022-11-15T12:02:21;2.22;;;1.92;;
15913;SDS011;8055;51.930;8.840;2022-11-15T12:04:58;2.80;;;1.88;;
15913;SDS011;8055;51.930;8.840;2022-11-15T12:07:33;3.72;;;2.08;;
15913;SDS011;8055;51.930;8.840;2022-11-15T12:10:05;5.38;;;2.08;;
15913;SDS011;8055;51.930;8.840;2022-11-15T12:15:24;2.60;;;1.80;;
15913;SDS011;8055;51.930;8.840;2022-11-15T12:17:54;2.30;;;1.73;;
15913;SDS011;8055;51.930;8.840;2022-11-15T12:20:22;2.92;;;2.03;;
15913;SDS011;8055;51.930;8.840;2022-11-15T12:22:55;2.50;;;1.73;;
15913;SDS011;8055;51.930;8.840;2022-11-15T12:28:34;3.58;;;2.10;;
15913;SDS011;8055;51.930;8.840;2022-11-15T12:33:56;2.72;;;2.08;;
15913;SDS011;8055;51.930;8.840;2022-11-15T12:39:04;5.18;;;1.95;;
15913;SDS011;8055;51.930;8.840;2022-11-15T12:41:41;6.28;;;2.63;;
15913;SDS011;8055;51.930;8.840;2022-11-15T12:44:16;2.53;;;2.20;;
15913;SDS011;8055;51.930;8.840;2022-11-15T12:47:08;4.00;;;2.63;;
15913;SDS011;8055;51.930;8.840;2022-11-15T12:49:48;5.45;;;2.65;;
15913;SDS011;8055;51.930;8.840;2022-11-15T12:52:14;6.00;;;2.92;;
15913;SDS011;8055;51.930;8.840;2022-11-15T13:02:18;4.60;;;2.38;;
15913;SDS011;8055;51.930;8.840;2022-11-15T13:04:46;5.18;;;2.40;;
15913;SDS011;8055;51.930;8.840;2022-11-15T13:12:53;3.50;;;2.10;;
15913;SDS011;8055;51.930;8.840;2022-11-15T13:17:53;3.20;;;2.22;;
15913;SDS011;8055;51.930;8.840;2022-11-15T13:20:22;3.45;;;2.30;;
15913;SDS011;8055;51.930;8.840;2022-11-15T13:22:52;4.07;;;1.92;;
15913;SDS011;8055;51.930;8.840;2022-11-15T13:33:20;3.90;;;2.15;;
15913;SDS011;8055;51.930;8.840;2022-11-15T13:36:18;2.47;;;2.10;;
15913;SDS011;8055;51.930;8.840;2022-11-15T13:38:54;5.20;;;2.13;;
15913;SDS011;8055;51.930;8.840;2022-11-15T13:41:31;2.65;;;2.30;;
15913;SDS011;8055;51.930;8.840;2022-11-15T13:44:01;2.58;;;2.00;;
15913;SDS011;8055;51.930;8.840;2022-11-15T13:46:29;5.15;;;2.03;;
15913;SDS011;8055;51.930;8.840;2022-11-15T13:48:59;5.43;;;2.05;;
15913;SDS011;8055;51.930;8.840;2022-11-15T13:51:46;2.75;;;2.00;;
15913;SDS011;8055;51.930;8.840;2022-11-15T13:54:24;2.25;;;1.70;;
15913;SDS011;8055;51.930;8.840;2022-11-15T13:57:00;4.25;;;2.10;;
15913;SDS011;8055;51.930;8.840;2022-11-15T13:59:29;4.20;;;2.08;;
15913;SDS011;8055;51.930;8.840;2022-11-15T14:01:58;2.92;;;1.95;;
15913;SDS011;8055;51.930;8.840;2022-11-15T14:05:41;4.32;;;2.00;;
15913;SDS011;8055;51.930;8.840;2022-11-15T14:07:55;2.87;;;2.00;;
15913;SDS011;8055;51.930;8.840;2022-11-15T14:10:30;3.30;;;2.22;;
15913;SDS011;8055;51.930;8.840;2022-11-15T14:12:58;3.78;;;2.15;;
15913;SDS011;8055;51.930;8.840;2022-11-15T14:17:59;2.85;;;1.90;;
15913;SDS011;8055;51.930;8.840;2022-11-15T14:22:51;3.90;;;1.95;;
15913;SDS011;8055;51.930;8.840;2022-11-15T14:25:30;3.25;;;1.65;;
15913;SDS011;8055;51.930;8.840;2022-11-15T14:28:14;2.63;;;1.80;;
15913;SDS011;8055;51.930;8.840;2022-11-15T14:30:42;2.88;;;1.83;;
15913;SDS011;8055;51.930;8.840;2022-11-15T14:33:17;3.17;;;2.38;;
15913;SDS011;8055;51.930;8.840;2022-11-15T14:35:46;4.03;;;2.15;;
15913;SDS011;8055;51.930;8.840;2022-11-15T14:38:11;5.45;;;2.38;;
15913;SDS011;8055;51.930;8.840;2022-11-15T14:40:36;2.85;;;1.75;;
15913;SDS011;8055;51.930;8.840;2022-11-15T14:43:02;2.13;;;1.90;;
15913;SDS011;8055;51.930;8.840;2022-11-15T14:45:28;2.75;;;1.60;;
15913;SDS011;8055;51.930;8.840;2022-11-15T14:47:54;2.85;;;1.60;;
15913;SDS011;8055;51.930;8.840;2022-11-15T14:50:20;3.63;;;2.00;;
15913;SDS011;8055;51.930;8.840;2022-11-15T14:52:47;2.33;;;1.65;;
15913;SDS011;8055;51.930;8.840;2022-11-15T14:57:44;5.50;;;2.17;;
15913;SDS011;8055;51.930;8.840;2022-11-15T15:00:10;2.78;;;1.80;;
15913;SDS011;8055;51.930;8.840;2022-11-15T15:02:36;3.78;;;1.73;;
15913;SDS011;8055;51.930;8.840;2022-11-15T15:05:11;2.88;;;1.30;;
15913;SDS011;8055;51.930;8.840;2022-11-15T15:07:48;2.42;;;1.80;;
15913;SDS011;8055;51.930;8.840;2022-11-15T15:10:15;3.47;;;1.65;;
15913;SDS011;8055;51.930;8.840;2022-11-15T15:12:41;2.25;;;1.75;;
15913;SDS011;8055;51.930;8.840;2022-11-15T15:15:26;2.65;;;1.85;;
15913;SDS011;8055;51.930;8.840;2022-11-15T15:17:58;2.10;;;1.60;;
15913;SDS011;8055;51.930;8.840;2022-11-15T15:20:24;1.83;;;1.30;;
15913;SDS011;8055;51.930;8.840;2022-11-15T15:22:49;4.00;;;1.95;;
15913;SDS011;8055;51.930;8.840;2022-11-15T15:25:26;3.33;;;1.52;;
15913;SDS011;8055;51.930;8.840;2022-11-15T15:27:53;3.65;;;1.77;;
15913;SDS011;8055;51.930;8.840;2022-11-15T15:30:20;2.92;;;1.85;;
15913;SDS011;8055;51.930;8.840;2022-11-15T15:32:47;4.30;;;1.75;;
15913;SDS011;8055;51.930;8.840;2022-11-15T15:35:13;3.42;;;2.05;;
15913;SDS011;8055;51.930;8.840;2022-11-15T15:37:40;2.55;;;2.10;;
15913;SDS011;8055;51.930;8.840;2022-11-15T15:42:45;2.75;;;2.13;;
15913;SDS011;8055;51.930;8.840;2022-11-15T15:45:10;4.03;;;2.20;;
15913;SDS011;8055;51.930;8.840;2022-11-15T15:47:37;5.78;;;2.28;;
15913;SDS011;8055;51.930;8.840;2022-11-15T15:50:04;3.90;;;2.10;;
15913;SDS011;8055;51.930;8.840;2022-11-15T15:52:39;3.72;;;2.17;;
15913;SDS011;8055;51.930;8.840;2022-11-15T15:55:05;7.32;;;2.25;;
15913;SDS011;8055;51.930;8.840;2022-11-15T15:57:30;4.82;;;2.50;;
15913;SDS011;8055;51.930;8.840;2022-11-15T15:59:56;3.53;;;2.08;;
15913;SDS011;8055;51.930;8.840;2022-11-15T16:02:21;4.05;;;2.00;;
15913;SDS011;8055;51.930;8.840;2022-11-15T16:04:46;3.30;;;2.10;;
15913;SDS011;8055;51.930;8.840;2022-11-15T16:07:15;3.25;;;1.70;;
15913;SDS011;8055;51.930;8.840;2022-11-15T16:09:46;3.17;;;2.00;;
15913;SDS011;8055;51.930;8.840;2022-11-15T16:12:33;3.47;;;1.98;;
15913;SDS011;8055;51.930;8.840;2022-11-15T16:14:59;4.43;;;2.42;;
15913;SDS011;8055;51.930;8.840;2022-11-15T16:17:29;3.45;;;2.50;;
15913;SDS011;8055;51.930;8.840;2022-11-15T16:19:58;4.03;;;2.55;;
15913;SDS011;8055;51.930;8.840;2022-11-15T16:22:23;4.85;;;2.50;;
15913;SDS011;8055;51.930;8.840;2022-11-15T16:24:49;5.13;;;3.00;;
15913;SDS011;8055;51.930;8.840;2022-11-15T16:27:18;3.65;;;2.30;;
15913;SDS011;8055;51.930;8.840;2022-11-15T16:29:45;5.07;;;2.63;;
15913;SDS011;8055;51.930;8.840;2022-11-15T16:32:11;4.43;;;2.50;;
15913;SDS011;8055;51.930;8.840;2022-11-15T16:34:37;2.88;;;2.40;;
15913;SDS011;8055;51.930;8.840;2022-11-15T16:37:02;3.78;;;1.95;;
15913;SDS011;8055;51.930;8.840;2022-11-15T16:39:28;4.60;;;2.92;;
15913;SDS011;8055;51.930;8.840;2022-11-15T16:41:57;3.97;;;2.92;;
15913;SDS011;8055;51.930;8.840;2022-11-15T16:44:23;4.47;;;2.97;;
15913;SDS011;8055;51.930;8.840;2022-11-15T16:46:49;2.88;;;2.25;;
15913;SDS011;8055;51.930;8.840;2022-11-15T16:49:18;4.47;;;2.92;;
15913;SDS011;8055;51.930;8.840;2022-11-15T16:51:45;4.05;;;2.80;;
15913;SDS011;8055;51.930;8.840;2022-11-15T16:54:12;4.72;;;2.58;;
15913;SDS011;8055;51.930;8.840;2022-11-15T16:56:38;2.65;;;2.30;;
15913;SDS011;8055;51.930;8.840;2022-11-15T16:59:04;4.70;;;2.55;;
15913;SDS011;8055;51.930;8.840;2022-11-15T17:01:31;5.55;;;2.45;;
15913;SDS011;8055;51.930;8.840;2022-11-15T17:04:00;5.20;;;3.00;;
15913;SDS011;8055;51.930;8.840;2022-11-15T17:06:40;3.95;;;2.95;;